createdAt,value
2018-01-23T00:00:58.895Z,97.90
2018-01-23T00:03:26.328Z,96.30
2018-01-23T00:05:53.739Z,96.10
2018-01-23T00:08:21.155Z,96.30
2018-01-23T00:10:48.571Z,96.20
2018-01-23T00:13:15.991Z,96.00
2018-01-23T00:15:43.419Z,95.60
2018-01-23T00:18:12.351Z,95.40
2018-01-23T00:20:39.768Z,95.40
2018-01-23T00:23:07.191Z,95.50
2018-01-23T00:25:35.398Z,95.60
2018-01-23T00:28:02.832Z,95.60
2018-01-23T00:30:30.251Z,96.10
2018-01-23T00:32:57.679Z,96.40
2018-01-23T00:35:25.095Z,96.70
2018-01-23T00:37:52.533Z,96.90
2018-01-23T00:40:19.943Z,97.40
2018-01-23T00:42:47.383Z,97.60
2018-01-23T00:45:14.798Z,97.70
2018-01-23T00:47:42.215Z,98.00
2018-01-23T00:50:10.420Z,98.10
2018-01-23T00:52:37.851Z,98.00
2018-01-23T00:55:05.267Z,98.30
2018-01-23T00:57:32.747Z,98.30
2018-01-23T01:00:00.175Z,98.20
2018-01-23T01:02:27.619Z,98.30
2018-01-23T01:04:55.055Z,98.30
2018-01-23T01:07:22.480Z,98.30
2018-01-23T01:09:49.943Z,98.50
2018-01-23T01:12:17.344Z,98.50
2018-01-23T01:14:45.536Z,98.30
2018-01-23T01:17:12.951Z,98.30
2018-01-23T01:19:41.143Z,98.10
2018-01-23T01:22:08.563Z,98.10
2018-01-23T01:24:35.978Z,98.00
2018-01-23T01:27:04.163Z,97.70
2018-01-23T01:29:31.583Z,97.70
2018-01-23T01:31:59.783Z,97.40
2018-01-23T01:34:27.203Z,97.30
2018-01-23T01:36:54.623Z,97.10
2018-01-23T01:39:22.818Z,97.00
2018-01-23T01:41:50.231Z,97.00
2018-01-23T01:44:18.423Z,96.50
2018-01-23T01:46:45.851Z,96.50
2018-01-23T01:49:13.267Z,96.30
2018-01-23T01:51:41.468Z,96.20
2018-01-23T01:54:08.904Z,96.20
2018-01-23T01:56:36.323Z,96.20
2018-01-23T01:59:03.747Z,96.50
2018-01-23T02:01:31.936Z,96.40
2018-01-23T02:03:59.356Z,96.40
2018-01-23T02:06:27.543Z,96.20
2018-01-23T02:08:54.969Z,96.20
2018-01-23T02:11:22.396Z,96.10
2018-01-23T02:13:50.588Z,95.90
2018-01-23T02:16:18.020Z,95.90
2018-01-23T02:18:45.447Z,96.10
2018-01-23T02:21:12.871Z,96.10
2018-01-23T02:23:41.060Z,95.90
2018-01-23T02:26:08.484Z,95.90
2018-01-23T02:28:36.679Z,96.00
2018-01-23T02:31:04.114Z,96.30
2018-01-23T02:33:31.573Z,95.80
2018-01-23T02:35:59.027Z,95.60
2018-01-23T02:38:26.444Z,95.30
2018-01-23T02:40:53.872Z,95.00
2018-01-23T02:43:21.295Z,94.90
2018-01-23T02:45:49.477Z,94.90
2018-01-23T02:48:16.900Z,95.00
2018-01-23T02:50:45.080Z,95.00
2018-01-23T02:53:12.491Z,95.00
2018-01-23T02:55:39.932Z,95.00
2018-01-23T02:58:08.134Z,95.20
2018-01-23T03:00:35.553Z,95.10
2018-01-23T03:03:02.973Z,94.50
2018-01-23T03:05:31.167Z,94.70
2018-01-23T03:07:59.359Z,94.80
2018-01-23T03:10:26.779Z,94.70
2018-01-23T03:12:54.199Z,95.00
2018-01-23T03:15:21.615Z,95.10
2018-01-23T03:17:49.801Z,95.30
2018-01-23T03:20:17.268Z,95.20
2018-01-23T03:22:44.740Z,95.50
2018-01-23T03:25:12.151Z,95.50
2018-01-23T03:27:39.571Z,95.50
2018-01-23T03:30:07.000Z,95.70
2018-01-23T03:32:34.472Z,95.60
2018-01-23T03:35:01.926Z,95.70
2018-01-23T03:37:29.335Z,95.70
2018-01-23T03:39:56.771Z,95.80
2018-01-23T03:42:24.203Z,95.90
2018-01-23T03:44:51.623Z,95.90
2018-01-23T03:47:19.807Z,95.80
2018-01-23T03:49:47.235Z,95.80
2018-01-23T03:52:14.656Z,95.80
2018-01-23T03:54:42.071Z,95.80
2018-01-23T03:57:09.607Z,95.70
2018-01-23T03:59:37.257Z,95.80
2018-01-23T04:02:05.383Z,95.90
2018-01-23T04:04:32.850Z,95.90
2018-01-23T04:07:00.267Z,95.70
2018-01-23T04:09:27.688Z,95.70
2018-01-23T04:11:55.179Z,95.60
2018-01-23T04:14:22.617Z,95.40
2018-01-23T04:16:50.031Z,95.10
2018-01-23T04:19:17.447Z,95.20
2018-01-23T04:21:45.632Z,95.10
2018-01-23T04:24:13.052Z,95.10
2018-01-23T04:26:41.248Z,94.60
2018-01-23T04:29:08.663Z,94.60
2018-01-23T04:31:36.091Z,94.40
2018-01-23T04:34:04.288Z,94.00
2018-01-23T04:36:31.719Z,94.00
2018-01-23T04:38:59.127Z,94.10
2018-01-23T04:41:27.335Z,94.10
2018-01-23T04:43:54.731Z,94.00
2018-01-23T04:46:22.922Z,93.90
2018-01-23T04:48:50.340Z,93.90
2018-01-23T04:51:17.764Z,94.30
2018-01-23T04:53:45.943Z,93.90
2018-01-23T04:56:13.376Z,93.90
2018-01-23T04:58:41.567Z,93.70
2018-01-23T05:01:08.983Z,93.70
2018-01-23T05:03:36.407Z,93.60
2018-01-23T05:06:04.591Z,93.40
2018-01-23T05:08:32.071Z,93.40
2018-01-23T05:10:59.483Z,93.50
2018-01-23T05:13:26.908Z,93.50
2018-01-23T05:15:54.340Z,93.50
2018-01-23T05:18:22.527Z,93.90
2018-01-23T05:20:49.951Z,93.80
2018-01-23T05:23:17.376Z,93.90
2018-01-23T05:25:45.559Z,93.90
2018-01-23T05:28:13.028Z,93.90
2018-01-23T05:30:40.451Z,94.00
2018-01-23T05:33:07.859Z,94.10
2018-01-23T05:35:36.048Z,94.10
2018-01-23T05:38:03.460Z,94.00
2018-01-23T05:40:31.652Z,93.90
2018-01-23T05:42:59.067Z,93.90
2018-01-23T05:45:26.496Z,93.70
2018-01-23T05:47:53.901Z,94.60
2018-01-23T05:50:21.327Z,94.10
2018-01-23T05:52:48.759Z,93.90
2018-01-23T05:55:16.180Z,94.10
2018-01-23T05:57:43.600Z,94.20
2018-01-23T06:00:11.801Z,94.30
2018-01-23T06:02:39.220Z,94.30
2018-01-23T06:05:06.651Z,94.50
2018-01-23T06:07:34.845Z,94.10
2018-01-23T06:10:02.255Z,94.10
2018-01-23T06:12:30.439Z,93.80
2018-01-23T06:14:57.859Z,93.80
2018-01-23T06:17:26.059Z,94.30
2018-01-23T06:19:53.476Z,94.30
2018-01-23T06:22:20.900Z,94.70
2018-01-23T06:24:48.324Z,94.20
2018-01-23T06:27:16.499Z,94.90
2018-01-23T06:29:43.927Z,94.70
2018-01-23T06:32:12.111Z,96.50
2018-01-23T06:34:39.536Z,96.50
2018-01-23T06:37:07.735Z,97.50
2018-01-23T06:39:35.149Z,97.80
2018-01-23T06:42:02.569Z,97.90
2018-01-23T06:44:30.768Z,97.90
2018-01-23T06:46:58.175Z,97.90
2018-01-23T06:49:26.397Z,98.70
2018-01-23T06:51:53.818Z,98.70
2018-01-23T06:54:21.237Z,99.40
2018-01-23T06:56:48.655Z,99.20
2018-01-23T06:59:16.856Z,99.80
2018-01-23T07:01:44.276Z,99.80
2018-01-23T07:04:11.706Z,99.70
2018-01-23T07:06:39.891Z,99.30
2018-01-23T07:09:07.307Z,99.30
2018-01-23T07:11:34.735Z,99.60
2018-01-23T07:14:02.915Z,99.90
2018-01-23T07:16:30.343Z,99.90
2018-01-23T07:18:58.538Z,99.90
2018-01-23T07:21:25.964Z,99.90
2018-01-23T07:23:53.379Z,99.90
2018-01-23T07:26:21.612Z,99.90
2018-01-23T07:28:48.984Z,99.90
2018-01-23T07:31:16.412Z,99.90
2018-01-23T07:33:43.836Z,99.90
2018-01-23T07:36:11.259Z,99.90
2018-01-23T07:38:38.683Z,99.90
2018-01-23T07:41:06.112Z,99.90
2018-01-23T07:43:33.528Z,99.90
2018-01-23T07:46:01.723Z,99.90
2018-01-23T07:48:29.159Z,99.90
2018-01-23T07:50:56.579Z,99.90
2018-01-23T07:53:24.008Z,99.90
2018-01-23T07:55:52.199Z,99.90
2018-01-23T07:58:20.379Z,99.90
2018-01-23T08:00:47.808Z,99.90
2018-01-23T08:03:15.243Z,99.90
2018-01-23T08:05:42.679Z,99.90
2018-01-23T08:08:10.099Z,99.90
2018-01-23T08:10:38.298Z,99.20
2018-01-23T08:13:05.716Z,99.20
2018-01-23T08:15:33.143Z,99.40
2018-01-23T08:18:01.336Z,98.30
2018-01-23T08:20:28.781Z,98.30
2018-01-23T08:22:56.199Z,98.60
2018-01-23T08:25:23.623Z,98.20
2018-01-23T08:27:51.808Z,97.80
2018-01-23T08:30:19.240Z,97.80
2018-01-23T08:32:46.663Z,98.20
2018-01-23T08:35:14.864Z,98.00
2018-01-23T08:37:42.290Z,98.00
2018-01-23T08:40:10.475Z,98.60
2018-01-23T08:42:37.904Z,97.30
2018-01-23T08:45:05.345Z,97.00
2018-01-23T08:47:32.807Z,96.60
2018-01-23T08:50:00.223Z,96.30
2018-01-23T08:52:27.643Z,97.50
2018-01-23T08:54:55.075Z,97.40
2018-01-23T08:57:23.255Z,96.10
2018-01-23T08:59:50.676Z,96.10
2018-01-23T09:02:18.104Z,95.40
2018-01-23T09:04:46.291Z,94.80
2018-01-23T09:07:13.759Z,94.80
2018-01-23T09:09:41.947Z,94.70
2018-01-23T09:12:09.375Z,94.70
2018-01-23T09:14:36.799Z,95.50
2018-01-23T09:17:04.220Z,94.40
2018-01-23T09:19:31.636Z,94.80
2018-01-23T09:21:59.815Z,95.40
2018-01-23T09:24:27.240Z,95.30
2018-01-23T09:26:55.427Z,94.30
2018-01-23T09:29:22.851Z,94.30
2018-01-23T09:31:50.272Z,94.60
2018-01-23T09:34:18.459Z,95.10
2018-01-23T09:36:45.925Z,95.10
2018-01-23T09:39:13.348Z,94.40
2018-01-23T09:41:40.771Z,94.30
2018-01-23T09:44:08.202Z,94.20
2018-01-23T09:46:36.395Z,94.70
2018-01-23T09:49:03.830Z,94.70
2018-01-23T09:51:31.236Z,94.00
2018-01-23T09:53:59.472Z,93.80
2018-01-23T09:56:26.879Z,93.80
2018-01-23T09:58:54.303Z,93.60
2018-01-23T10:01:21.735Z,92.70
2018-01-23T10:03:49.215Z,93.20
2018-01-23T10:06:16.639Z,93.10
2018-01-23T10:08:44.068Z,92.70
2018-01-23T10:11:11.479Z,92.50
2018-01-23T10:13:39.683Z,92.20
2018-01-23T10:16:07.107Z,91.90
2018-01-23T10:18:34.531Z,92.80
2018-01-23T10:21:02.716Z,92.40
2018-01-23T10:23:30.139Z,92.40
2018-01-23T10:25:57.569Z,92.40
2018-01-23T10:28:25.756Z,91.90
2018-01-23T10:30:53.172Z,91.90
2018-01-23T10:33:21.355Z,91.70
2018-01-23T10:35:48.827Z,91.60
2018-01-23T10:38:16.243Z,92.40
2018-01-23T10:40:43.692Z,91.30
2018-01-23T10:43:11.227Z,91.50
2018-01-23T10:45:38.644Z,91.10
2018-01-23T10:48:06.831Z,90.70
2018-01-23T10:50:34.249Z,90.70
2018-01-23T10:53:02.432Z,90.00
2018-01-23T10:55:29.849Z,90.00
2018-01-23T10:57:58.044Z,91.10
2018-01-23T11:00:25.472Z,91.10
2018-01-23T11:02:52.883Z,90.10
2018-01-23T11:05:21.087Z,89.60
2018-01-23T11:07:48.511Z,89.60
2018-01-23T11:10:15.968Z,89.40
2018-01-23T11:12:43.407Z,89.10
2018-01-23T11:15:10.819Z,88.40
2018-01-23T11:17:38.304Z,90.20
2018-01-23T11:20:05.728Z,88.40
2018-01-23T11:22:33.144Z,89.00
2018-01-23T11:25:00.575Z,87.30
2018-01-23T11:27:28.767Z,87.50
2018-01-23T11:29:56.183Z,87.50
2018-01-23T11:32:23.595Z,87.10
2018-01-23T11:34:51.023Z,87.50
2018-01-23T11:37:18.435Z,87.30
2018-01-23T11:39:45.866Z,87.20
2018-01-23T11:42:13.289Z,85.40
2018-01-23T11:44:41.472Z,82.70
2018-01-23T11:47:08.902Z,83.40
2018-01-23T11:49:36.328Z,81.40
2018-01-23T11:52:03.748Z,81.40
2018-01-23T11:54:31.184Z,80.00
2018-01-23T11:56:58.603Z,80.90
2018-01-23T11:59:26.021Z,76.70
2018-01-23T12:01:53.439Z,76.50
2018-01-23T12:04:20.868Z,76.50
2018-01-23T12:06:49.043Z,75.70
2018-01-23T12:09:16.463Z,75.70
2018-01-23T12:11:44.644Z,68.10
2018-01-23T12:14:12.063Z,67.10
2018-01-23T12:16:40.251Z,61.90
2018-01-23T12:19:07.680Z,61.80
2018-01-23T12:21:35.102Z,57.90
2018-01-23T12:24:03.291Z,58.00
2018-01-23T12:26:30.711Z,57.90
2018-01-23T12:28:58.909Z,63.90
2018-01-23T12:31:26.328Z,63.90
2018-01-23T12:33:53.746Z,64.20
2018-01-23T12:36:21.935Z,65.40
2018-01-23T12:38:49.359Z,65.30
2018-01-23T12:41:16.786Z,61.50
2018-01-23T12:43:44.195Z,62.10
2018-01-23T12:46:11.623Z,64.30
2018-01-23T12:48:39.055Z,66.30
2018-01-23T12:51:06.484Z,66.90
2018-01-23T12:53:33.911Z,68.00
2018-01-23T12:56:01.323Z,66.80
2018-01-23T12:58:28.752Z,69.70
2018-01-23T13:00:56.180Z,69.60
2018-01-23T13:03:23.587Z,69.20
2018-01-23T13:05:51.068Z,68.10
2018-01-23T13:08:18.488Z,69.50
2018-01-23T13:10:45.907Z,70.20
2018-01-23T13:13:13.323Z,72.50
2018-01-23T13:15:41.516Z,70.40
2018-01-23T13:18:08.935Z,70.20
2018-01-23T13:20:37.116Z,71.20
2018-01-23T13:23:04.544Z,71.10
2018-01-23T13:25:31.962Z,69.30
2018-01-23T13:28:00.160Z,70.60
2018-01-23T13:30:27.582Z,70.60
2018-01-23T13:32:54.996Z,71.80
2018-01-23T13:35:23.180Z,73.10
2018-01-23T13:37:50.662Z,72.30
2018-01-23T13:40:18.075Z,73.30
2018-01-23T13:42:45.501Z,74.30
2018-01-23T13:45:13.680Z,77.00
2018-01-23T13:47:41.279Z,77.00
2018-01-23T13:50:08.672Z,78.60
2018-01-23T13:52:36.091Z,79.30
2018-01-23T13:55:03.520Z,77.80
2018-01-23T13:57:31.703Z,77.50
2018-01-23T13:59:59.168Z,77.40
2018-01-23T14:02:26.623Z,76.80
2018-01-23T14:04:54.056Z,77.50
2018-01-23T14:07:21.503Z,76.00
2018-01-23T14:09:48.928Z,76.80
2018-01-23T14:12:16.352Z,76.00
2018-01-23T14:14:43.780Z,75.80
2018-01-23T14:17:11.200Z,76.80
2018-01-23T14:19:39.394Z,77.40
2018-01-23T14:22:06.807Z,77.10
2018-01-23T14:24:35.000Z,77.10
2018-01-23T14:27:02.415Z,76.90
2018-01-23T14:29:30.599Z,79.20
2018-01-23T14:31:58.017Z,79.20
2018-01-23T14:34:26.237Z,77.70
2018-01-23T14:36:53.667Z,77.70
2018-01-23T14:39:21.094Z,77.40
2018-01-23T14:41:48.511Z,78.10
2018-01-23T14:44:15.924Z,77.90
2018-01-23T14:46:43.339Z,78.00
2018-01-23T14:49:10.764Z,77.70
2018-01-23T14:51:38.187Z,77.40
2018-01-23T14:54:05.603Z,76.60
2018-01-23T14:56:33.787Z,78.20
2018-01-23T14:59:01.203Z,78.20
2018-01-23T15:01:29.385Z,78.50
2018-01-23T15:03:56.803Z,78.50
2018-01-23T15:06:24.983Z,77.50
2018-01-23T15:08:52.414Z,77.40
2018-01-23T15:11:19.828Z,77.70
2018-01-23T15:13:48.015Z,79.20
2018-01-23T15:16:15.428Z,78.40
2018-01-23T15:18:42.857Z,79.30
2018-01-23T15:21:10.260Z,80.30
2018-01-23T15:23:37.679Z,80.80
2018-01-23T15:26:05.109Z,82.00
2018-01-23T15:28:33.295Z,82.80
2018-01-23T15:31:00.721Z,82.80
2018-01-23T15:33:28.208Z,83.60
2018-01-23T15:35:55.624Z,83.60
2018-01-23T15:38:23.047Z,83.80
2018-01-23T15:40:50.467Z,84.80
2018-01-23T15:43:18.659Z,86.00
2018-01-23T15:45:46.071Z,85.90
2018-01-23T15:48:14.263Z,86.00
2018-01-23T15:50:41.678Z,85.30
2018-01-23T15:53:09.869Z,83.70
2018-01-23T15:55:37.275Z,83.80
2018-01-23T15:58:05.470Z,83.30
2018-01-23T16:00:32.895Z,83.30
2018-01-23T16:03:00.319Z,82.70
2018-01-23T16:05:28.500Z,83.30
2018-01-23T16:07:55.916Z,83.30
2018-01-23T16:10:24.106Z,84.10
2018-01-23T16:12:51.527Z,84.10
2018-01-23T16:15:18.959Z,84.20
2018-01-23T16:17:47.136Z,83.60
2018-01-23T16:20:14.619Z,83.60
2018-01-23T16:22:42.027Z,84.40
2018-01-23T16:25:09.452Z,84.40
2018-01-23T16:27:36.881Z,85.10
2018-01-23T16:30:05.056Z,84.00
2018-01-23T16:32:32.487Z,83.80
2018-01-23T16:34:59.903Z,85.70
2018-01-23T16:37:27.324Z,84.60
2018-01-23T16:39:54.761Z,85.00
2018-01-23T16:42:22.179Z,85.30
2018-01-23T16:44:49.599Z,85.30
2018-01-23T16:47:17.017Z,85.10
2018-01-23T16:49:44.435Z,84.50
2018-01-23T16:52:11.856Z,83.00
2018-01-23T16:54:40.040Z,83.80
2018-01-23T16:57:08.219Z,83.10
2018-01-23T16:59:35.638Z,83.00
2018-01-23T17:02:03.823Z,89.60
2018-01-23T17:04:31.259Z,89.60
2018-01-23T17:06:58.681Z,85.70
2018-01-23T17:09:26.868Z,83.70
2018-01-23T17:11:54.287Z,83.50
2018-01-23T17:14:22.479Z,83.20
2018-01-23T17:16:49.891Z,83.00
2018-01-23T17:19:18.079Z,83.90
2018-01-23T17:21:45.496Z,83.90
2018-01-23T17:24:13.676Z,84.00
2018-01-23T17:26:41.099Z,84.00
2018-01-23T17:29:09.276Z,85.30
2018-01-23T17:31:36.703Z,85.30
2018-01-23T17:34:04.137Z,85.40
2018-01-23T17:36:31.560Z,84.90
2018-01-23T17:38:58.979Z,85.90
2018-01-23T17:41:27.164Z,85.00
2018-01-23T17:43:54.594Z,84.90
2018-01-23T17:46:22.014Z,85.00
2018-01-23T17:48:50.204Z,87.30
2018-01-23T17:51:17.702Z,86.60
2018-01-23T17:53:45.105Z,85.30
2018-01-23T17:56:12.527Z,85.50
2018-01-23T17:58:39.939Z,85.40
2018-01-23T18:01:08.128Z,86.20
2018-01-23T18:03:35.559Z,86.20
2018-01-23T18:06:03.040Z,86.10
2018-01-23T18:08:30.463Z,87.20
2018-01-23T18:10:57.887Z,87.50
2018-01-23T18:13:25.304Z,87.90
2018-01-23T18:15:53.492Z,88.20
2018-01-23T18:18:20.920Z,88.10
2018-01-23T18:20:49.159Z,89.20
2018-01-23T18:23:16.565Z,89.10
2018-01-23T18:25:44.011Z,89.70
2018-01-23T18:28:11.424Z,90.40
2018-01-23T18:30:38.906Z,90.30
2018-01-23T18:33:06.315Z,91.00
2018-01-23T18:35:33.742Z,90.80
2018-01-23T18:38:01.230Z,91.30
2018-01-23T18:40:28.687Z,91.40
2018-01-23T18:42:56.159Z,91.20
2018-01-23T18:45:24.381Z,91.10
2018-01-23T18:47:51.802Z,91.10
2018-01-23T18:50:19.247Z,91.30
2018-01-23T18:52:46.709Z,91.70
2018-01-23T18:55:14.131Z,91.80
2018-01-23T18:57:41.555Z,91.80
2018-01-23T19:00:09.429Z,91.60
2018-01-23T19:02:36.845Z,91.70
2018-01-23T19:05:04.319Z,91.70
2018-01-23T19:07:31.781Z,92.00
2018-01-23T19:09:59.955Z,92.40
2018-01-23T19:12:28.181Z,92.20
2018-01-23T19:14:55.600Z,92.20
2018-01-23T19:17:23.083Z,92.30
2018-01-23T19:19:50.492Z,92.70
2018-01-23T19:22:17.978Z,92.70
2018-01-23T19:24:45.380Z,92.70
2018-01-23T19:27:13.609Z,93.30
2018-01-23T19:29:41.032Z,93.30
2018-01-23T19:32:09.267Z,93.20
2018-01-23T19:34:36.718Z,93.10
2018-01-23T19:37:04.186Z,93.20
2018-01-23T19:39:32.349Z,92.80
2018-01-23T19:41:59.823Z,92.80
2018-01-23T19:44:27.249Z,92.20
2018-01-23T19:46:54.722Z,92.50
2018-01-23T19:49:22.174Z,92.10
2018-01-23T19:51:49.575Z,92.50
2018-01-23T19:54:17.003Z,92.50
2018-01-23T19:56:44.444Z,91.90
2018-01-23T19:59:13.566Z,92.20
2018-01-23T20:01:41.037Z,92.10
2018-01-23T20:04:08.435Z,91.90
2018-01-23T20:06:35.871Z,92.10
2018-01-23T20:09:03.333Z,91.90
2018-01-23T20:11:30.803Z,92.00
2018-01-23T20:13:58.274Z,92.30
2018-01-23T20:16:25.731Z,92.30
2018-01-23T20:18:53.186Z,92.20
2018-01-23T20:21:20.641Z,92.20
2018-01-23T20:23:48.103Z,92.40
2018-01-23T20:26:17.103Z,91.60
2018-01-23T20:28:44.533Z,91.60
2018-01-23T20:31:12.707Z,91.90
2018-01-23T20:33:40.179Z,91.90
2018-01-23T20:36:07.653Z,91.80
2018-01-23T20:38:35.098Z,91.50
2018-01-23T20:41:02.523Z,92.10
2018-01-23T20:43:29.967Z,91.40
2018-01-23T20:45:57.435Z,92.30
2018-01-23T20:48:24.903Z,92.20
2018-01-23T20:50:53.076Z,92.40
2018-01-23T20:53:20.575Z,92.40
2018-01-23T20:55:48.039Z,92.40
2018-01-23T20:58:16.295Z,92.40
2018-01-23T21:00:44.561Z,92.40
2018-01-23T21:03:12.014Z,92.30
2018-01-23T21:05:40.235Z,92.10
2018-01-23T21:08:07.699Z,92.10
2018-01-23T21:10:35.879Z,92.40
2018-01-23T21:13:03.350Z,92.40
2018-01-23T21:15:30.780Z,92.60
2018-01-23T21:17:58.263Z,92.40
2018-01-23T21:20:25.681Z,92.20
2018-01-23T21:22:53.137Z,92.20
2018-01-23T21:25:20.608Z,92.80
2018-01-23T21:27:48.829Z,92.80
2018-01-23T21:30:16.338Z,92.70
2018-01-23T21:32:44.515Z,92.50
2018-01-23T21:35:11.959Z,92.50
2018-01-23T21:37:39.376Z,92.10
2018-01-23T21:40:06.840Z,91.80
2018-01-23T21:42:34.245Z,91.50
2018-01-23T21:45:01.673Z,91.30
2018-01-23T21:47:29.863Z,91.30
2018-01-23T21:49:57.292Z,91.30
2018-01-23T21:52:24.794Z,91.50
2018-01-23T21:54:52.253Z,91.80
2018-01-23T21:57:19.702Z,91.60
2018-01-23T21:59:47.107Z,91.10
2018-01-23T22:02:14.565Z,91.30
2018-01-23T22:04:41.971Z,91.10
2018-01-23T22:07:09.451Z,91.10
2018-01-23T22:09:36.901Z,90.90
2018-01-23T22:12:04.342Z,90.90
2018-01-23T22:14:31.755Z,90.90
2018-01-23T22:16:59.179Z,91.20
2018-01-23T22:19:26.599Z,90.90
2018-01-23T22:21:54.046Z,90.70
2018-01-23T22:24:21.447Z,90.50
2018-01-23T22:26:48.868Z,90.20
2018-01-23T22:29:16.307Z,90.10
2018-01-23T22:31:43.786Z,89.00
2018-01-23T22:34:11.991Z,90.00
2018-01-23T22:36:39.459Z,90.00
2018-01-23T22:39:06.870Z,90.00
2018-01-23T22:41:34.308Z,88.80
2018-01-23T22:44:01.720Z,89.10
2018-01-23T22:46:29.174Z,90.40
2018-01-23T22:48:56.579Z,89.00
2018-01-23T22:51:24.767Z,88.30
2018-01-23T22:53:52.188Z,88.30
2018-01-23T22:56:20.373Z,87.90
2018-01-23T22:58:47.796Z,87.80
2018-01-23T23:01:15.992Z,87.40
2018-01-23T23:03:43.404Z,87.40
2018-01-23T23:06:10.823Z,88.10
2018-01-23T23:08:39.020Z,87.50
2018-01-23T23:11:06.447Z,87.40
2018-01-23T23:13:33.859Z,87.50
2018-01-23T23:16:01.287Z,87.80
2018-01-23T23:18:28.688Z,88.00
2018-01-23T23:20:56.136Z,87.20
2018-01-23T23:23:23.531Z,87.60
2018-01-23T23:25:51.716Z,86.80
2018-01-23T23:28:19.181Z,86.60
2018-01-23T23:30:46.584Z,86.70
2018-01-23T23:33:14.767Z,87.30
2018-01-23T23:35:42.209Z,87.40
2018-01-23T23:38:09.620Z,88.70
2018-01-23T23:40:37.820Z,88.60
2018-01-23T23:43:05.267Z,88.40
2018-01-23T23:45:32.678Z,88.50
2018-01-23T23:48:00.096Z,87.30
2018-01-23T23:50:28.299Z,87.20
2018-01-23T23:52:55.704Z,87.10
2018-01-23T23:55:23.892Z,88.00
2018-01-23T23:57:51.315Z,87.90
